1897 NOT_NAMED (1897355S11062)


IBTrACS version v04r00. Visit IBTrACS website for data access.
Please direct all questions to the IBTrACS Q and A forum

Storm track - Intensity - Wind Radii - Intensity Data - Source Data - All data

Summary Information

Storm ID 1897355S11062
Start Dec 21 06Z
End Dec 28 06Z
ATCF IDs
Track status Best track data.
Spur track This storm is a spur track associated with the main storm: 1897355S10063

Storm track plot

Map of storm track

Intensity plots

No Intensity information for this storm


Radial wind information

No radial wind information for this storm


Position and Intensity Table

BASIN ISO_TIME_________ NATURE LAT LON
degrees north degrees east
SI 1897-12-21 06:00:00 NR -11.00 61.70
SI 09:00:00 NR -11.27 61.17
SI 12:00:00 NR -11.54 60.64
SI 15:00:00 NR -11.82 60.11
SI 18:00:00 NR -12.10 59.60
SI 21:00:00 NR -12.39 59.10
SI 1897-12-22 00:00:00 NR -12.68 58.62
SI 03:00:00 NR -12.99 58.15
SI 06:00:00 NR -13.30 57.70
SI 09:00:00 NR -13.62 57.27
SI 12:00:00 NR -13.94 56.85
SI 15:00:00 NR -14.27 56.43
SI 18:00:00 NR -14.60 56.00
SI 21:00:00 NR -14.93 55.52
SI 1897-12-23 00:00:00 NR -15.27 55.03
SI 03:00:00 NR -15.59 54.55
SI 06:00:00 NR -15.90 54.10
SI 09:00:00 NR -16.19 53.71
SI 12:00:00 NR -16.46 53.36
SI 15:00:00 NR -16.73 53.03
SI 18:00:00 NR -17.00 52.70
SI 21:00:00 NR -17.26 52.33
SI 1897-12-24 00:00:00 NR -17.53 51.97
SI 03:00:00 NR -17.80 51.62
SI 06:00:00 NR -18.10 51.30
SI 09:00:00 NR -18.42 50.96
SI 12:00:00 NR -18.77 50.66
SI 15:00:00 NR -19.13 50.43
SI 18:00:00 NR -19.50 50.30
SI 21:00:00 NR -19.86 50.30
SI 1897-12-25 00:00:00 NR -20.23 50.41
SI 03:00:00 NR -20.61 50.59
SI 06:00:00 NR -21.00 50.80
SI 09:00:00 NR -21.39 50.97
SI 12:00:00 NR -21.78 51.16
SI 15:00:00 NR -22.19 51.37
SI 18:00:00 NR -22.60 51.60
SI 21:00:00 NR -23.03 51.85
SI 1897-12-26 00:00:00 NR -23.46 52.11
SI 03:00:00 NR -23.89 52.40
SI 06:00:00 NR -24.30 52.70
SI 09:00:00 NR -24.67 53.02
SI 12:00:00 NR -25.01 53.34
SI 15:00:00 NR -25.35 53.67
SI 18:00:00 NR -25.70 54.00
SI 21:00:00 NR -26.01 54.23
SI 1897-12-27 00:00:00 NR -26.34 54.47
SI 03:00:00 NR -26.73 54.77
SI 06:00:00 NR -27.20 55.20
SI 09:00:00 NR -27.84 55.79
SI 12:00:00 NR -28.57 56.51
SI 15:00:00 NR -29.31 57.36
SI 18:00:00 NR -30.00 58.30
SI 21:00:00 NR -30.59 59.31
SI 1897-12-28 00:00:00 NR -31.08 60.37
SI 03:00:00 NR -31.51 61.48
SI 06:00:00 NR -31.90 62.60

Source Information

Agency Information
USA
TOKYO
CMA
HKO
NEWDELHI
REUNION
BOM
NADI
WELLINGTON
DS824
TD9636 cons_worldwide_trop_cyclone_18710101-19891231-005:Line=2414
TD9635
NEUMANN
MLC

All available IBTrACS Data

SEASON BASIN SUBBASIN ISO_TIME_________ NATURE LAT LON DIST2LAND LANDFALL IFLAG USA SSHS TD9636 LAT TD9636 LON TD9636 STAGE STORM SPEED STORM DIR
Year degrees north degrees east km km 1 degrees north degrees east kts degrees
1898 SI MM 1897-12-21 06:00:00 NR -11.00 61.70 1104 1053 __________O___ -1 -11.00 61.70 7 12 243
1898 SI MM 09:00:00 NR -11.27 61.17 1053 1014 __________P___ -1 -11.27 61.17 7 12 243
1898 SI MM 12:00:00 NR -11.54 60.64 1011 963 __________P___ -1 -11.54 60.64 7 12 242
1898 SI MM 15:00:00 NR -11.82 60.11 963 918 __________P___ -1 -11.82 60.11 7 12 241
1898 SI MM 18:00:00 NR -12.10 59.60 918 874 __________O___ -1 -12.10 59.60 7 11 240
1898 SI MM 21:00:00 NR -12.39 59.10 874 833 __________P___ -1 -12.39 59.10 7 11 239
1898 SI MM 1897-12-22 00:00:00 NR -12.68 58.62 833 796 __________P___ -1 -12.68 58.62 7 11 237
1898 SI MM 03:00:00 NR -12.99 58.15 796 760 __________P___ -1 -12.99 58.15 7 11 236
1898 SI MM 06:00:00 NR -13.30 57.70 760 727 __________O___ -1 -13.30 57.70 7 11 234
1898 SI MM 09:00:00 NR -13.62 57.27 727 695 __________P___ -1 -13.62 57.27 7 11 232
1898 SI MM 12:00:00 NR -13.94 56.85 693 653 __________P___ -1 -13.94 56.85 7 10 231
1898 SI MM 15:00:00 NR -14.27 56.43 642 595 __________P___ -1 -14.27 56.43 7 11 231
1898 SI MM 18:00:00 NR -14.60 56.00 595 538 __________O___ -1 -14.60 56.00 7 11 233
1898 SI MM 21:00:00 NR -14.93 55.52 538 493 __________P___ -1 -14.93 55.52 7 12 235
1898 SI MM 1897-12-23 00:00:00 NR -15.27 55.03 482 439 __________P___ -1 -15.27 55.03 7 11 235
1898 SI MM 03:00:00 NR -15.59 54.55 429 389 __________P___ -1 -15.59 54.55 7 11 235
1898 SI MM 06:00:00 NR -15.90 54.10 389 354 __________O___ -1 -15.90 54.10 7 10 233
1898 SI MM 09:00:00 NR -16.19 53.71 354 329 __________P___ -1 -16.19 53.71 7 9 231
1898 SI MM 12:00:00 NR -16.46 53.36 333 303 __________P___ -1 -16.46 53.36 7 9 230
1898 SI MM 15:00:00 NR -16.73 53.03 303 289 __________P___ -1 -16.73 53.03 7 8 230
1898 SI MM 18:00:00 NR -17.00 52.70 289 270 __________O___ -1 -17.00 52.70 7 9 231
1898 SI MM 21:00:00 NR -17.26 52.33 266 246 __________P___ -1 -17.26 52.33 7 9 233
1898 SI MM 1897-12-24 00:00:00 NR -17.53 51.97 246 221 __________P___ -1 -17.53 51.97 7 9 232
1898 SI MM 03:00:00 NR -17.80 51.62 221 195 __________P___ -1 -17.80 51.62 7 9 228
1898 SI MM 06:00:00 NR -18.10 51.30 195 169 __________O___ -1 -18.10 51.30 7 9 225
1898 SI MM 09:00:00 NR -18.42 50.96 170 148 __________P___ -1 -18.42 50.96 7 9 222
1898 SI MM 12:00:00 NR -18.77 50.66 152 133 __________P___ -1 -18.77 50.66 7 9 216
1898 SI MM 15:00:00 NR -19.13 50.43 133 130 __________P___ -1 -19.13 50.43 7 8 205
1898 SI MM 18:00:00 NR -19.50 50.30 137 137 __________O___ -1 -19.50 50.30 7 7 189
1898 SI MM 21:00:00 NR -19.86 50.30 156 156 __________P___ -1 -19.86 50.30 7 7 172
1898 SI MM 1897-12-25 00:00:00 NR -20.23 50.41 168 168 __________P___ -1 -20.23 50.41 7 8 160
1898 SI MM 03:00:00 NR -20.61 50.59 199 199 __________P___ -1 -20.61 50.59 7 9 155
1898 SI MM 06:00:00 NR -21.00 50.80 236 236 __________O___ -1 -21.00 50.80 7 9 156
1898 SI MM 09:00:00 NR -21.39 50.97 273 273 __________P___ -1 -21.39 50.97 7 9 157
1898 SI MM 12:00:00 NR -21.78 51.16 303 303 __________P___ -1 -21.78 51.16 7 9 155
1898 SI MM 15:00:00 NR -22.19 51.37 332 332 __________P___ -1 -22.19 51.37 7 9 153
1898 SI MM 18:00:00 NR -22.60 51.60 361 361 __________O___ -1 -22.60 51.60 7 10 152
1898 SI MM 21:00:00 NR -23.03 51.85 393 393 __________P___ -1 -23.03 51.85 7 10 151
1898 SI MM 1897-12-26 00:00:00 NR -23.46 52.11 410 402 __________P___ -1 -23.46 52.11 7 10 150
1898 SI MM 03:00:00 NR -23.89 52.40 415 415 __________P___ -1 -23.89 52.40 7 10 147
1898 SI MM 06:00:00 NR -24.30 52.70 428 428 __________O___ -1 -24.30 52.70 7 10 144
1898 SI MM 09:00:00 NR -24.67 53.02 446 441 __________P___ -1 -24.67 53.02 7 9 141
1898 SI MM 12:00:00 NR -25.01 53.34 461 456 __________P___ -1 -25.01 53.34 7 9 139
1898 SI MM 15:00:00 NR -25.35 53.67 486 483 __________P___ -1 -25.35 53.67 7 9 139
1898 SI MM 18:00:00 NR -25.70 54.00 507 507 __________O___ -1 -25.70 54.00 7 8 142
1898 SI MM 21:00:00 NR -26.01 54.23 533 530 __________P___ -1 -26.01 54.23 7 8 147
1898 SI MM 1897-12-27 00:00:00 NR -26.34 54.47 558 558 __________P___ -1 -26.34 54.47 7 9 146
1898 SI MM 03:00:00 NR -26.73 54.77 597 597 __________P___ -1 -26.73 54.77 7 11 143
1898 SI MM 06:00:00 NR -27.20 55.20 649 649 __________O___ -1 -27.20 55.20 7 14 141
1898 SI MM 09:00:00 NR -27.84 55.79 715 715 __________P___ -1 -27.84 55.79 7 18 140
1898 SI MM 12:00:00 NR -28.57 56.51 809 809 __________P___ -1 -28.57 56.51 7 20 137
1898 SI MM 15:00:00 NR -29.31 57.36 900 900 __________P___ -1 -29.31 57.36 7 21 133
1898 SI MM 18:00:00 NR -30.00 58.30 997 997 __________O___ -1 -30.00 58.30 7 21 127
1898 SI MM 21:00:00 NR -30.59 59.31 1091 1091 __________P___ -1 -30.59 59.31 7 21 121
1898 SI MM 1897-12-28 00:00:00 NR -31.08 60.37 1183 1183 __________P___ -1 -31.08 60.37 7 21 116
1898 SI MM 03:00:00 NR -31.51 61.48 1270 1270 __________P___ -1 -31.51 61.48 7 21 113
1898 SI MM 06:00:00 NR -31.90 62.60 1362 __________O___ -1 -31.90 62.60 7 21 112